createdAt,value
2022-08-27T11:01:56.201Z,32.20
2022-08-27T11:03:34.365Z,35.00
2022-08-27T11:05:15.173Z,32.80
2022-08-27T11:07:00.423Z,32.40
2022-08-27T11:08:50.012Z,32.80
2022-08-27T11:10:25.499Z,29.00
2022-08-27T11:12:15.025Z,29.00
2022-08-27T11:13:51.634Z,28.80
2022-08-27T11:15:32.026Z,27.60
2022-08-27T11:17:10.418Z,29.40
2022-08-27T11:18:49.400Z,30.00
2022-08-27T11:20:24.370Z,28.40
2022-08-27T11:22:16.987Z,30.40
2022-08-27T11:24:33.170Z,28.00
2022-08-27T11:26:07.627Z,29.00
2022-08-27T11:27:40.697Z,21.20
2022-08-27T11:29:33.523Z,30.20
2022-08-27T11:31:21.447Z,25.60
2022-08-27T11:33:11.028Z,30.20
2022-08-27T11:35:31.673Z,29.20
2022-08-27T11:37:45.400Z,26.00
2022-08-27T11:39:38.564Z,22.20
2022-08-27T11:41:47.265Z,25.80
2022-08-27T11:43:23.630Z,22.00
2022-08-27T11:44:58.783Z,28.00
2022-08-27T11:46:43.703Z,23.80
2022-08-27T11:48:27.054Z,23.60
2022-08-27T11:50:01.349Z,25.20
2022-08-27T11:51:37.719Z,25.20
2022-08-27T11:53:09.497Z,22.00
2022-08-27T11:54:53.043Z,26.40
2022-08-27T11:56:30.467Z,26.40
2022-08-27T11:58:24.657Z,24.00
2022-08-27T11:59:56.677Z,25.80
2022-08-27T12:01:30.695Z,26.20
2022-08-27T12:03:09.390Z,24.80
2022-08-27T12:04:42.095Z,26.60
2022-08-27T12:06:20.065Z,26.60
2022-08-27T12:07:52.393Z,22.20
2022-08-27T12:09:24.386Z,25.60
2022-08-27T12:11:08.454Z,27.60
2022-08-27T12:12:53.192Z,16.00
2022-08-27T12:14:29.937Z,26.60
2022-08-27T12:16:01.678Z,27.40
2022-08-27T12:17:42.440Z,20.80
2022-08-27T12:19:51.127Z,28.00
2022-08-27T12:21:36.574Z,23.20
2022-08-27T12:23:51.098Z,22.60
2022-08-27T12:25:22.993Z,23.80
2022-08-27T12:27:00.179Z,25.20
2022-08-27T12:28:32.177Z,25.40
2022-08-27T12:30:26.921Z,21.20
2022-08-27T12:32:22.680Z,27.80
2022-08-27T12:33:54.462Z,23.20
2022-08-27T12:35:42.012Z,26.00
2022-08-27T12:37:14.906Z,23.40
2022-08-27T12:38:50.638Z,24.00
2022-08-27T12:40:31.142Z,26.00
2022-08-27T12:42:03.669Z,21.80
2022-08-27T12:43:38.197Z,24.00
2022-08-27T12:45:18.907Z,26.40
2022-08-27T12:46:59.792Z,24.00
2022-08-27T12:48:34.180Z,24.60
2022-08-27T12:50:06.507Z,28.00
2022-08-27T12:51:38.280Z,23.60
2022-08-27T12:53:21.900Z,25.00
2022-08-27T12:55:14.465Z,20.80
2022-08-27T12:56:58.518Z,25.40
2022-08-27T12:58:42.251Z,24.20
2022-08-27T13:00:17.535Z,29.60
2022-08-27T13:02:07.726Z,23.40
2022-08-27T13:03:44.408Z,25.80
2022-08-27T13:05:20.171Z,26.40
2022-08-27T13:06:54.621Z,18.60
2022-08-27T13:08:28.988Z,26.80
2022-08-27T13:10:15.060Z,21.20
2022-08-27T13:11:48.619Z,15.20
2022-08-27T13:13:24.363Z,21.80
2022-08-27T13:14:57.319Z,21.20
2022-08-27T13:16:30.316Z,24.60
2022-08-27T13:18:06.911Z,20.60
2022-08-27T13:19:56.212Z,24.80
2022-08-27T13:21:29.117Z,17.60
2022-08-27T13:23:00.890Z,29.00
2022-08-27T13:24:46.380Z,22.00
2022-08-27T13:26:21.803Z,25.00
2022-08-27T13:28:08.106Z,22.00
2022-08-27T13:29:40.368Z,22.00
2022-08-27T13:31:12.254Z,23.60
2022-08-27T13:32:44.107Z,25.60
2022-08-27T13:34:19.674Z,26.40
2022-08-27T13:35:51.448Z,24.60
2022-08-27T13:37:35.868Z,21.20
2022-08-27T13:39:07.621Z,17.80
2022-08-27T13:40:58.755Z,25.40
2022-08-27T13:42:31.509Z,25.00
2022-08-27T13:44:09.657Z,26.60
2022-08-27T13:45:41.785Z,22.60
2022-08-27T13:47:23.990Z,27.20
2022-08-27T13:48:56.387Z,25.60
2022-08-27T13:50:30.136Z,22.40
2022-08-27T13:52:04.863Z,25.20
2022-08-27T13:53:55.201Z,22.40
2022-08-27T13:55:27.073Z,27.40
2022-08-27T13:57:08.359Z,23.80
2022-08-27T13:58:40.077Z,24.20
2022-08-27T14:00:21.018Z,25.20
2022-08-27T14:02:11.323Z,24.40
2022-08-27T14:04:00.528Z,20.00
2022-08-27T14:05:34.000Z,21.00
2022-08-27T14:07:13.703Z,24.80
2022-08-27T14:08:45.429Z,24.80
2022-08-27T14:10:26.214Z,24.00
2022-08-27T14:12:06.186Z,22.40
2022-08-27T14:13:47.304Z,21.00
2022-08-27T14:15:48.790Z,23.80
2022-08-27T14:17:34.591Z,21.40
2022-08-27T14:19:11.542Z,22.40
2022-08-27T14:20:43.351Z,24.40
2022-08-27T14:22:15.275Z,26.20
2022-08-27T14:23:47.288Z,26.80
2022-08-27T14:25:22.270Z,24.20
2022-08-27T14:26:55.426Z,28.60
2022-08-27T14:28:27.528Z,23.80
2022-08-27T14:29:59.256Z,26.80
2022-08-27T14:31:31.444Z,26.60
2022-08-27T14:33:03.324Z,26.80
2022-08-27T14:34:36.511Z,25.80
2022-08-27T14:36:08.609Z,25.40
2022-08-27T14:37:40.691Z,24.60
2022-08-27T14:39:13.837Z,23.80
2022-08-27T14:40:46.503Z,25.40
2022-08-27T14:42:20.137Z,26.80
2022-08-27T14:43:51.918Z,26.60
2022-08-27T14:45:24.050Z,25.40
2022-08-27T14:46:56.572Z,24.40
2022-08-27T14:48:30.631Z,24.20
2022-08-27T14:50:02.660Z,26.60
2022-08-27T14:51:36.386Z,25.60
2022-08-27T14:53:08.391Z,24.40
2022-08-27T14:54:40.324Z,24.60
2022-08-27T14:56:12.133Z,21.60
2022-08-27T14:57:43.901Z,26.80
2022-08-27T14:59:15.702Z,27.40
2022-08-27T15:00:47.602Z,26.60
2022-08-27T15:02:21.032Z,25.60
2022-08-27T15:03:53.098Z,23.60
2022-08-27T15:05:25.515Z,26.00
2022-08-27T15:06:57.372Z,25.40
2022-08-27T15:08:32.313Z,21.60
2022-08-27T15:10:04.564Z,26.20
2022-08-27T15:11:39.298Z,23.80
2022-08-27T15:13:11.513Z,24.00
2022-08-27T15:14:43.468Z,25.60
2022-08-27T15:16:29.880Z,23.60
2022-08-27T15:18:02.139Z,20.20
2022-08-27T15:19:35.269Z,28.60
2022-08-27T15:21:07.118Z,22.00
2022-08-27T15:22:40.197Z,29.00
2022-08-27T15:24:19.735Z,30.00
2022-08-27T15:25:51.524Z,27.20
2022-08-27T15:27:23.726Z,29.60
2022-08-27T15:29:06.517Z,26.80
2022-08-27T15:30:38.707Z,25.80
2022-08-27T15:32:13.727Z,28.40
2022-08-27T15:33:45.686Z,26.20
2022-08-27T15:35:19.924Z,25.80
2022-08-27T15:36:53.060Z,24.40
2022-08-27T15:38:24.882Z,24.40
2022-08-27T15:39:56.836Z,25.00
2022-08-27T15:41:29.339Z,23.40
2022-08-27T15:43:03.635Z,25.80
2022-08-27T15:44:36.091Z,23.20
2022-08-27T15:46:07.918Z,25.60
2022-08-27T15:47:42.508Z,28.00
2022-08-27T15:49:15.301Z,20.00
2022-08-27T15:50:47.040Z,19.00
2022-08-27T15:52:20.533Z,26.80
2022-08-27T15:53:52.250Z,26.80
2022-08-27T15:55:29.884Z,26.20
2022-08-27T15:57:02.428Z,24.80
2022-08-27T15:58:35.673Z,25.80
2022-08-27T16:00:08.064Z,18.20
2022-08-27T16:01:39.879Z,25.20
2022-08-27T16:03:13.090Z,23.40
2022-08-27T16:04:45.042Z,20.20
2022-08-27T16:06:21.030Z,26.40
2022-08-27T16:07:52.763Z,25.40
2022-08-27T16:09:24.513Z,20.40
2022-08-27T16:10:56.890Z,26.20
2022-08-27T16:12:28.947Z,29.40
2022-08-27T16:14:01.439Z,25.60
2022-08-27T16:15:33.414Z,26.80
2022-08-27T16:17:05.197Z,27.80
2022-08-27T16:18:40.788Z,26.60
2022-08-27T16:20:14.622Z,29.40
2022-08-27T16:21:47.460Z,27.40
2022-08-27T16:23:21.629Z,26.60
2022-08-27T16:24:53.906Z,28.40
2022-08-27T16:26:25.634Z,32.60
2022-08-27T16:28:00.907Z,28.60
2022-08-27T16:29:32.593Z,27.60
2022-08-27T16:31:05.643Z,29.00
2022-08-27T16:32:46.436Z,23.60
2022-08-27T16:34:19.696Z,25.60
2022-08-27T16:35:51.588Z,27.80
2022-08-27T16:37:24.570Z,29.40
2022-08-27T16:38:56.799Z,28.60
2022-08-27T16:40:28.654Z,32.20
2022-08-27T16:42:00.479Z,30.60
2022-08-27T16:43:32.240Z,31.00
2022-08-27T16:45:04.232Z,27.40
2022-08-27T16:46:36.073Z,31.80
2022-08-27T16:48:26.669Z,29.60
2022-08-27T16:50:24.122Z,32.00
2022-08-27T16:51:57.834Z,32.60
2022-08-27T16:53:32.921Z,29.40
2022-08-27T16:55:05.044Z,27.20
2022-08-27T16:56:37.863Z,25.80
2022-08-27T16:58:24.391Z,32.40
2022-08-27T16:59:56.324Z,31.40
2022-08-27T17:01:28.061Z,28.80
2022-08-27T17:02:59.968Z,31.40
2022-08-27T17:04:36.659Z,32.40
2022-08-27T17:06:14.354Z,31.60
2022-08-27T17:07:48.163Z,32.80
2022-08-27T17:09:20.648Z,24.40
2022-08-27T17:10:52.647Z,33.00
2022-08-27T17:12:24.311Z,33.00
2022-08-27T17:14:02.367Z,33.20
2022-08-27T17:15:34.177Z,35.20
2022-08-27T17:17:06.419Z,32.40
2022-08-27T17:18:38.144Z,30.00
2022-08-27T17:20:10.386Z,30.00
2022-08-27T17:21:42.510Z,28.20
2022-08-27T17:23:36.913Z,33.60
2022-08-27T17:25:09.167Z,31.00
2022-08-27T17:26:40.897Z,33.40
2022-08-27T17:28:12.685Z,34.80
2022-08-27T17:29:44.639Z,32.40
2022-08-27T17:31:29.332Z,25.40
2022-08-27T17:33:01.113Z,31.20
2022-08-27T17:34:33.460Z,34.00
2022-08-27T17:36:06.535Z,29.00
2022-08-27T17:37:38.227Z,33.60
2022-08-27T17:39:09.996Z,33.80
2022-08-27T17:40:41.817Z,33.00
2022-08-27T17:42:13.741Z,27.80
2022-08-27T17:43:45.488Z,28.60
2022-08-27T17:45:17.438Z,31.00
2022-08-27T17:46:50.742Z,35.20
2022-08-27T17:48:26.447Z,33.80
2022-08-27T17:49:59.127Z,30.80
2022-08-27T17:51:31.375Z,31.60
2022-08-27T17:53:03.106Z,33.60
2022-08-27T17:54:36.442Z,25.60
2022-08-27T17:56:08.903Z,30.00
2022-08-27T17:57:41.545Z,31.00
2022-08-27T17:59:13.343Z,33.80
2022-08-27T18:00:45.114Z,35.80
2022-08-27T18:02:23.852Z,32.80
2022-08-27T18:03:56.461Z,31.00
2022-08-27T18:05:28.293Z,38.20
2022-08-27T18:07:00.077Z,32.00
2022-08-27T18:08:31.891Z,34.60
2022-08-27T18:10:03.960Z,32.20
2022-08-27T18:11:36.370Z,33.60
2022-08-27T18:13:08.204Z,32.60
2022-08-27T18:14:39.901Z,32.00
2022-08-27T18:16:11.972Z,33.20
2022-08-27T18:17:43.749Z,35.80
2022-08-27T18:19:15.731Z,30.60
2022-08-27T18:20:47.555Z,33.20
2022-08-27T18:22:19.697Z,33.20
2022-08-27T18:23:51.505Z,30.20
2022-08-27T18:25:24.689Z,33.00
2022-08-27T18:26:56.363Z,35.00
2022-08-27T18:28:28.918Z,34.20
2022-08-27T18:30:00.821Z,35.80
2022-08-27T18:31:32.582Z,35.80
2022-08-27T18:33:04.544Z,33.60
2022-08-27T18:34:37.586Z,37.20
2022-08-27T18:36:12.816Z,36.20
2022-08-27T18:37:44.753Z,36.60
2022-08-27T18:39:16.706Z,37.20
2022-08-27T18:40:48.962Z,39.60
2022-08-27T18:42:20.772Z,39.40
2022-08-27T18:43:52.714Z,40.80
2022-08-27T18:45:28.604Z,43.60
2022-08-27T18:47:00.679Z,40.20
2022-08-27T18:48:33.397Z,42.20
2022-08-27T18:50:07.737Z,43.00
2022-08-27T18:51:41.925Z,46.20
2022-08-27T18:53:17.262Z,44.40
2022-08-27T18:54:49.037Z,40.60
2022-08-27T18:56:20.790Z,41.40
2022-08-27T18:57:52.782Z,44.20
2022-08-27T18:59:25.807Z,48.40
2022-08-27T19:00:59.261Z,48.20
2022-08-27T19:02:31.548Z,49.40
2022-08-27T19:04:03.898Z,49.00
2022-08-27T19:05:35.669Z,50.80
2022-08-27T19:07:08.078Z,49.60
2022-08-27T19:08:40.351Z,50.60
2022-08-27T19:10:12.545Z,50.40
2022-08-27T19:11:45.187Z,53.40
2022-08-27T19:13:16.890Z,50.20
2022-08-27T19:14:48.665Z,50.00
2022-08-27T19:16:26.015Z,51.40
2022-08-27T19:17:58.228Z,53.80
2022-08-27T19:19:30.086Z,54.20
2022-08-27T19:21:01.897Z,51.40
2022-08-27T19:22:33.741Z,53.40
2022-08-27T19:24:05.968Z,53.60
2022-08-27T19:25:37.760Z,56.00
2022-08-27T19:27:09.682Z,57.00
2022-08-27T19:28:41.929Z,58.80
2022-08-27T19:30:14.143Z,52.80
2022-08-27T19:31:45.923Z,64.25
2022-08-27T19:33:17.930Z,73.25
2022-08-27T19:34:49.806Z,50.60
2022-08-27T19:36:23.216Z,61.00
2022-08-27T19:37:57.771Z,63.40
2022-08-27T19:39:29.814Z,63.60
2022-08-27T19:41:01.918Z,59.60
2022-08-27T19:42:34.027Z,67.80
2022-08-27T19:44:05.822Z,64.40
2022-08-27T19:45:40.438Z,61.00
2022-08-27T19:47:13.124Z,57.40
2022-08-27T19:48:44.933Z,67.75
2022-08-27T19:50:16.811Z,64.60
2022-08-27T19:51:48.514Z,70.25
2022-08-27T19:53:20.453Z,64.00
2022-08-27T19:55:12.765Z,65.25
2022-08-27T19:56:43.987Z,70.25
2022-08-27T19:58:16.656Z,67.00
2022-08-27T19:59:48.617Z,67.80
2022-08-27T20:01:20.447Z,73.50
2022-08-27T20:02:52.639Z,68.75
2022-08-27T20:04:27.033Z,71.20
2022-08-27T20:06:00.962Z,67.80
2022-08-27T20:07:32.839Z,63.40
2022-08-27T20:09:09.700Z,62.80
2022-08-27T20:10:41.477Z,61.00
2022-08-27T20:12:15.006Z,72.20
2022-08-27T20:13:50.210Z,82.25
2022-08-27T20:15:22.874Z,83.50
2022-08-27T20:16:55.454Z,81.00
2022-08-27T20:18:27.307Z,64.60
2022-08-27T20:19:59.044Z,67.00
2022-08-27T20:21:30.958Z,69.00
2022-08-27T20:23:03.826Z,66.60
2022-08-27T20:24:37.355Z,70.60
2022-08-27T20:26:09.379Z,69.40
2022-08-27T20:27:41.445Z,65.20
2022-08-27T20:29:14.940Z,70.25
2022-08-27T20:30:50.998Z,70.75
2022-08-27T20:32:24.840Z,64.20
2022-08-27T20:34:01.269Z,72.50
2022-08-27T20:35:33.094Z,76.00
2022-08-27T20:37:05.396Z,76.00
2022-08-27T20:38:37.179Z,76.50
2022-08-27T20:40:11.101Z,69.25
2022-08-27T20:41:42.887Z,73.75
2022-08-27T20:43:16.038Z,72.75
2022-08-27T20:44:47.899Z,78.25
2022-08-27T20:46:21.934Z,70.00
2022-08-27T20:47:54.031Z,69.00
2022-08-27T20:49:27.898Z,77.50
2022-08-27T20:50:59.646Z,73.25
2022-08-27T20:52:31.493Z,65.40
2022-08-27T20:54:03.501Z,60.60
2022-08-27T20:55:35.276Z,62.80
2022-08-27T20:57:08.142Z,52.80
2022-08-27T20:58:58.633Z,58.00
2022-08-27T21:00:32.038Z,59.80
2022-08-27T21:02:08.104Z,61.80
2022-08-27T21:03:39.880Z,60.40
2022-08-27T21:05:13.973Z,58.20
2022-08-27T21:06:45.699Z,59.20
2022-08-27T21:08:18.390Z,62.60
2022-08-27T21:09:56.446Z,56.60
2022-08-27T21:11:29.160Z,66.20
2022-08-27T21:13:04.485Z,65.40
2022-08-27T21:14:37.055Z,49.20
2022-08-27T21:16:09.111Z,62.20
2022-08-27T21:17:40.903Z,65.00
2022-08-27T21:19:12.639Z,55.20
2022-08-27T21:20:44.501Z,51.60
2022-08-27T21:22:16.457Z,55.60
2022-08-27T21:23:48.890Z,56.40
2022-08-27T21:25:20.962Z,51.40
2022-08-27T21:26:52.688Z,52.40
2022-08-27T21:28:24.441Z,51.60
2022-08-27T21:29:56.266Z,52.80
2022-08-27T21:31:28.166Z,53.20
2022-08-27T21:32:59.972Z,57.00
2022-08-27T21:34:31.741Z,51.20
2022-08-27T21:36:04.502Z,53.00
2022-08-27T21:37:36.436Z,55.20
2022-08-27T21:39:08.251Z,53.20
2022-08-27T21:40:40.117Z,62.60
2022-08-27T21:42:12.788Z,54.40
2022-08-27T21:43:44.504Z,58.40
2022-08-27T21:45:16.268Z,108.75
2022-08-27T21:46:51.664Z,116.60
2022-08-27T21:48:23.481Z,74.00
2022-08-27T21:49:55.209Z,70.75
2022-08-27T21:51:30.545Z,59.60
2022-08-27T21:53:02.428Z,62.20
2022-08-27T21:54:36.041Z,65.50
2022-08-27T21:56:08.229Z,69.50
2022-08-27T21:57:40.024Z,81.00
2022-08-27T21:59:11.906Z,74.75
2022-08-27T22:00:45.588Z,79.75
2022-08-27T22:02:38.870Z,74.75
2022-08-27T22:04:10.987Z,76.75
2022-08-27T22:05:43.426Z,79.75
2022-08-27T22:07:15.174Z,89.00
2022-08-27T22:08:47.143Z,88.75
2022-08-27T22:10:18.925Z,76.75
2022-08-27T22:11:50.761Z,68.75
2022-08-27T22:13:22.679Z,81.25
2022-08-27T22:14:54.440Z,89.75
2022-08-27T22:16:26.291Z,75.50
2022-08-27T22:17:58.745Z,90.75
2022-08-27T22:19:30.984Z,83.25
2022-08-27T22:21:04.330Z,84.00
2022-08-27T22:22:36.032Z,83.50
2022-08-27T22:24:08.267Z,76.67
2022-08-27T22:25:40.991Z,80.00
2022-08-27T22:27:12.878Z,78.50
2022-08-27T22:28:44.828Z,77.50
2022-08-27T22:30:16.634Z,83.25
2022-08-27T22:31:48.674Z,82.75
2022-08-27T22:33:21.436Z,79.75
2022-08-27T22:34:53.225Z,82.75
